map of BYS home
BYS - Airport
Location
City:  Fort Irwin/Barstow, California, United States
Name:Bicycle Lake AAF Airport
ICAO:KBYS
IATA:BYS
FAA LID:BYS

Details
Type:Airport (Airfield)
Use:Military
Latitude:3516'50"N (35.280530)
Longitude:11637'48"W (-116.630028)
Datum:WGS 1984
Elevation:2350 ft (716 m)
Variation:11.81E (WMM2015v2 magnetic declination)
-0.08 annual change
Runways:2
Longest:9500 × 175 ft (2896 × 53.5 m)

Time
Time Zone:UTC-8 (DST-7)
Local Time:

Weather
METAR:KBYS 041355Z AUTO 19002KT 10SM CLR 08/02 A2978 RMK AO2 SLP093 WND DATA ESTMD T00800023

Related Locations
Nearby:
Farthest:RRG: 11361 mi / 18284 km
Plaine Corail [Sir Gatan Duval Airport (Plaine Corail Airport)], Rodrigues Island, MU

Find:

   beyond  
but within

Other Information
Maps:
NOTAMs:
Links:
Sources:

  
  • flag of United States
  • flag of California
  

Sectional Chart

Flight Planning
at skyvector.com

Satellite Image

Google Maps Satellite view

 

Copyright © 2004-2019 Karl L. Swartz. All rights reserved.
The Great Circle Mapper name and logo are trademarks of the Great Circle Mapper.
All other trademarks mentioned herein belong to their respective owners.
Please see credits for attibutions and further copyright information.

  Follow gcmap on Facebook Follow gcmap on Twitter GCmap on LinkedIn

hCard Microformat

Geo Microformat